Time;durP1;ratioP1;P1;durP2;ratioP2;P2;SDS_P1;SDS_P2;PMS_P1;PMS_P2;Temp;Humidity;BMP_temperature;BMP_pressure;BME280_temperature;BME280_humidity;BME280_pressure;Samples;Min_cycle;Max_cycle;Signal;HPM_P1;HPM_P2
2021/09/21 00:01:15;;;;;;;14.50;13.70;;;14.20;99.90;;;;;;5052885;28;20449;-62
2021/09/21 00:03:42;;;;;;;14.50;13.87;;;14.10;99.90;;;;;;5052856;28;20452;-62
2021/09/21 00:06:08;;;;;;;15.00;14.27;;;14.10;99.90;;;;;;5053118;28;20436;-60
2021/09/21 00:08:36;;;;;;;14.77;13.97;;;14.10;99.90;;;;;;5052907;28;20973;-59
2021/09/21 00:11:04;;;;;;;15.00;14.00;;;14.00;99.90;;;;;;5052777;28;20444;-61
2021/09/21 00:13:31;;;;;;;15.63;14.70;;;14.00;99.90;;;;;;5052980;28;20440;-61
2021/09/21 00:16:00;;;;;;;15.30;14.50;;;14.00;99.90;;;;;;5052926;28;20503;-62
2021/09/21 00:18:26;;;;;;;14.70;14.10;;;14.00;99.90;;;;;;5052948;28;20879;-62
2021/09/21 00:20:53;;;;;;;15.10;14.03;;;14.00;99.90;;;;;;5052537;28;20456;-61
2021/09/21 00:23:20;;;;;;;15.10;14.50;;;14.00;99.90;;;;;;5052638;28;20926;-61
2021/09/21 00:25:47;;;;;;;15.60;14.70;;;14.00;99.90;;;;;;5052695;28;20502;-62
2021/09/21 00:28:14;;;;;;;14.83;14.13;;;14.00;99.90;;;;;;5052753;28;20444;-61
2021/09/21 00:30:46;;;;;;;15.60;14.90;;;14.00;99.90;;;;;;5052420;28;20451;-61
2021/09/21 00:33:18;;;;;;;15.33;14.63;;;14.00;99.90;;;;;;5052224;28;20945;-60
2021/09/21 00:35:45;;;;;;;15.17;14.27;;;14.00;99.90;;;;;;5052498;28;20476;-59
2021/09/21 00:38:14;;;;;;;15.10;14.40;;;14.00;99.90;;;;;;5052217;28;20459;-62
2021/09/21 00:40:41;;;;;;;14.63;14.03;;;13.90;99.90;;;;;;5052218;28;20451;-62
2021/09/21 00:43:08;;;;;;;14.83;13.93;;;13.90;99.90;;;;;;5052279;28;20451;-60
2021/09/21 00:45:35;;;;;;;14.60;14.00;;;13.90;99.90;;;;;;5052423;28;20444;-60
2021/09/21 00:48:02;;;;;;;14.93;14.33;;;13.90;99.90;;;;;;5052380;28;20502;-60
2021/09/21 00:50:31;;;;;;;14.93;14.23;;;13.90;99.90;;;;;;5052141;28;20452;-61
2021/09/21 00:53:01;;;;;;;14.00;13.40;;;13.90;99.90;;;;;;5051955;28;20440;-60
2021/09/21 00:55:28;;;;;;;14.23;13.63;;;13.90;99.90;;;;;;5052174;28;21020;-59
2021/09/21 00:57:55;;;;;;;14.73;14.00;;;13.90;99.90;;;;;;5051958;28;20483;-61
2021/09/21 01:00:22;;;;;;;14.27;13.57;;;13.90;99.90;;;;;;5052121;28;20472;-62
2021/09/21 01:02:49;;;;;;;14.10;13.40;;;13.80;99.90;;;;;;5051840;28;20444;-60
2021/09/21 01:05:16;;;;;;;14.50;13.87;;;13.80;99.90;;;;;;5052085;28;20443;-61
2021/09/21 01:07:45;;;;;;;14.40;13.60;;;13.80;99.90;;;;;;5051747;28;20447;-61
2021/09/21 01:10:14;;;;;;;14.70;14.03;;;13.80;99.90;;;;;;5051921;28;20460;-60
2021/09/21 01:12:41;;;;;;;14.80;14.10;;;13.80;99.90;;;;;;5051756;28;20440;-59
2021/09/21 01:15:10;;;;;;;14.10;13.50;;;13.80;99.90;;;;;;5051787;28;20476;-60
2021/09/21 01:17:37;;;;;;;14.37;13.67;;;13.80;99.90;;;;;;5051577;28;20448;-61
2021/09/21 01:20:05;;;;;;;14.57;13.93;;;13.80;99.90;;;;;;5051449;28;20468;-59
2021/09/21 01:22:33;;;;;;;15.57;14.87;;;13.80;99.90;;;;;;5051647;28;20444;-61
2021/09/21 01:25:00;;;;;;;13.93;13.33;;;13.80;99.90;;;;;;5051821;28;20810;-61
2021/09/21 01:27:27;;;;;;;14.67;13.97;;;13.80;99.90;;;;;;5051402;28;20444;-60
2021/09/21 01:29:53;;;;;;;14.63;14.00;;;13.80;99.90;;;;;;5051365;28;20460;-61
2021/09/21 01:32:21;;;;;;;14.50;13.80;;;13.70;99.90;;;;;;5051448;28;20444;-58
2021/09/21 01:34:49;;;;;;;15.40;14.50;;;13.70;99.90;;;;;;5051390;28;20480;-62
2021/09/21 01:37:16;;;;;;;14.77;14.00;;;13.70;99.90;;;;;;5051345;28;20456;-62
2021/09/21 01:39:45;;;;;;;14.20;13.37;;;13.70;99.90;;;;;;5051383;28;20533;-61
2021/09/21 01:42:11;;;;;;;13.47;12.87;;;13.70;99.90;;;;;;5051340;28;20451;-60
2021/09/21 01:44:38;;;;;;;13.83;13.20;;;13.70;99.90;;;;;;5051488;28;20451;-58
2021/09/21 01:47:05;;;;;;;14.43;13.53;;;13.70;99.90;;;;;;5051234;28;20452;-59
2021/09/21 01:49:37;;;;;;;14.07;13.37;;;13.70;99.90;;;;;;5051202;28;20479;-60
2021/09/21 01:52:10;;;;;;;14.53;13.40;;;13.70;99.90;;;;;;5050522;28;20451;-60
2021/09/21 01:54:49;;;;;;;14.23;13.63;;;13.70;99.90;;;;;;5051138;28;20467;-60
2021/09/21 02:00:01;;;;;;;14.03;13.10;;;13.60;99.90;;;;;;5051377;28;20571;-61
2021/09/21 02:02:28;;;;;;;14.70;13.83;;;13.60;99.90;;;;;;5051037;28;20447;-60
2021/09/21 02:04:55;;;;;;;14.93;13.70;;;13.60;99.90;;;;;;5051060;28;20441;-59
2021/09/21 02:09:57;;;;;;;14.20;13.60;;;13.50;99.90;;;;;;5407580;22;20546;-60
2021/09/21 02:12:25;;;;;;;14.70;13.90;;;13.50;99.90;;;;;;5091384;28;20442;-58
2021/09/21 02:14:51;;;;;;;14.07;13.37;;;13.50;99.90;;;;;;5091099;28;20462;-59
2021/09/21 02:17:18;;;;;;;14.90;14.10;;;13.50;99.90;;;;;;5091447;28;20443;-60
2021/09/21 02:19:45;;;;;;;14.63;14.03;;;13.50;99.90;;;;;;5077697;28;20831;-59
2021/09/21 02:22:11;;;;;;;14.00;13.30;;;13.50;99.90;;;;;;5071109;28;20447;-59
2021/09/21 02:24:38;;;;;;;14.67;14.07;;;13.50;99.90;;;;;;5071638;28;20778;-58
2021/09/21 02:27:05;;;;;;;13.90;13.20;;;13.50;99.90;;;;;;5071051;28;20443;-61
2021/09/21 02:29:33;;;;;;;15.97;15.10;;;13.50;99.90;;;;;;5070775;28;20466;-61
2021/09/21 02:31:59;;;;;;;16.10;15.20;;;13.50;99.90;;;;;;5070907;28;20443;-60
2021/09/21 02:34:26;;;;;;;15.53;14.73;;;13.40;99.90;;;;;;5071020;28;20450;-60
2021/09/21 02:36:53;;;;;;;13.90;13.10;;;13.40;99.90;;;;;;5070793;28;20490;-59
2021/09/21 02:39:20;;;;;;;14.40;13.70;;;13.40;99.90;;;;;;5070661;28;20460;-60
2021/09/21 02:41:46;;;;;;;13.53;12.90;;;13.40;99.90;;;;;;5070986;28;20447;-61
2021/09/21 02:44:13;;;;;;;14.00;13.40;;;13.40;99.90;;;;;;5070959;28;20446;-59
2021/09/21 02:46:41;;;;;;;14.63;13.83;;;13.30;99.90;;;;;;5070940;28;20785;-59
2021/09/21 02:49:08;;;;;;;15.80;15.00;;;13.30;99.90;;;;;;5070565;28;20471;-59
2021/09/21 02:51:34;;;;;;;15.70;14.80;;;13.30;99.90;;;;;;5070963;28;20447;-59
2021/09/21 02:54:01;;;;;;;15.67;14.87;;;13.30;99.90;;;;;;5070823;28;20718;-59
2021/09/21 02:56:28;;;;;;;14.77;14.07;;;13.30;99.90;;;;;;5070777;28;20491;-61
2021/09/21 02:58:54;;;;;;;15.70;14.90;;;13.30;99.90;;;;;;5070585;28;20462;-61
2021/09/21 03:01:21;;;;;;;14.77;13.77;;;13.30;99.90;;;;;;5070769;28;20450;-61
2021/09/21 03:03:52;;;;;;;15.30;14.30;;;13.30;99.90;;;;;;5073392;28;20454;-60
2021/09/21 03:06:22;;;;;;;14.57;13.83;;;13.20;99.90;;;;;;5074280;28;20482;-61
2021/09/21 03:08:50;;;;;;;14.73;14.03;;;13.20;99.90;;;;;;5073966;28;20502;-61
2021/09/21 03:11:20;;;;;;;13.47;12.80;;;13.20;99.90;;;;;;5074054;28;20971;-61
2021/09/21 03:17:07;;;;;;;15.53;14.63;;;13.20;99.90;;;;;;5074308;28;20551;-61
2021/09/21 03:19:28;;;;;;;14.30;13.63;;;13.20;99.90;;;;;;5073862;28;20828;-60
2021/09/21 03:21:57;;;;;;;13.93;13.20;;;13.10;99.90;;;;;;5073993;28;20439;-61
2021/09/21 03:24:24;;;;;;;15.27;14.27;;;13.00;99.90;;;;;;5074024;28;20444;-61
2021/09/21 03:26:50;;;;;;;15.70;14.80;;;12.90;99.90;;;;;;5073906;28;20442;-59
2021/09/21 03:29:17;;;;;;;15.13;14.50;;;12.90;99.90;;;;;;5073461;28;20462;-59
2021/09/21 03:31:45;;;;;;;15.63;14.83;;;12.80;99.90;;;;;;5073869;28;20933;-57
2021/09/21 03:34:11;;;;;;;14.13;13.43;;;12.70;99.90;;;;;;5073761;28;20453;-60
2021/09/21 03:36:39;;;;;;;15.93;14.87;;;12.70;99.90;;;;;;5073571;28;20475;-60
2021/09/21 03:39:06;;;;;;;16.07;15.27;;;12.60;99.90;;;;;;5073386;28;20463;-59
2021/09/21 03:41:33;;;;;;;16.07;14.93;;;12.60;99.90;;;;;;5073620;28;20455;-60
2021/09/21 03:44:00;;;;;;;16.10;15.10;;;12.50;99.90;;;;;;5073559;28;20450;-59
2021/09/21 03:46:26;;;;;;;16.20;15.30;;;12.50;99.90;;;;;;5073610;28;20557;-61
2021/09/21 03:48:54;;;;;;;15.70;14.77;;;12.50;99.90;;;;;;5073240;28;20471;-61
2021/09/21 03:51:21;;;;;;;15.83;14.73;;;12.60;99.90;;;;;;5073395;28;20454;-60
2021/09/21 03:53:49;;;;;;;14.80;14.00;;;12.60;99.90;;;;;;5073470;28;20951;-60
2021/09/21 03:56:15;;;;;;;14.67;13.97;;;12.60;99.90;;;;;;5073187;28;20502;-61
2021/09/21 03:58:42;;;;;;;14.00;13.30;;;12.60;99.90;;;;;;5073116;28;20467;-60
2021/09/21 04:01:09;;;;;;;15.17;14.37;;;12.60;99.90;;;;;;5073296;28;20443;-60
2021/09/21 04:03:35;;;;;;;15.37;14.57;;;12.60;99.90;;;;;;5064623;28;20452;-58
2021/09/21 04:06:02;;;;;;;16.80;15.53;;;12.60;99.90;;;;;;5053128;28;20953;-58
2021/09/21 04:08:29;;;;;;;16.97;16.20;;;12.70;99.90;;;;;;5052928;28;20453;-60
2021/09/21 04:10:57;;;;;;;17.20;16.17;;;12.70;99.90;;;;;;5052596;28;20479;-59
2021/09/21 04:13:24;;;;;;;17.93;16.77;;;12.70;99.90;;;;;;5052574;28;20444;-60
2021/09/21 04:15:50;;;;;;;17.23;16.33;;;12.70;99.90;;;;;;5052880;28;21146;-56
2021/09/21 04:18:17;;;;;;;17.07;15.80;;;12.70;99.90;;;;;;5052247;28;20448;-62
2021/09/21 04:20:44;;;;;;;16.87;15.97;;;12.80;99.90;;;;;;5052080;28;20448;-59
2021/09/21 04:23:11;;;;;;;15.30;14.60;;;12.80;99.90;;;;;;5052802;28;20452;-61
2021/09/21 04:25:37;;;;;;;16.43;15.63;;;12.80;99.90;;;;;;5052766;28;20442;-63
2021/09/21 04:28:06;;;;;;;17.27;16.47;;;12.80;99.90;;;;;;5052650;28;20465;-66
2021/09/21 04:30:32;;;;;;;16.70;15.90;;;12.80;99.90;;;;;;5050985;28;20479;-65
2021/09/21 04:32:59;;;;;;;17.90;17.00;;;12.90;99.90;;;;;;5051968;28;20471;-65
2021/09/21 04:35:26;;;;;;;18.73;17.80;;;12.90;99.90;;;;;;5052550;28;20448;-66
2021/09/21 04:37:53;;;;;;;17.47;16.67;;;12.90;99.90;;;;;;5052359;28;20448;-66
2021/09/21 04:40:20;;;;;;;18.47;17.00;;;12.90;99.90;;;;;;5052335;28;20464;-65
2021/09/21 04:42:46;;;;;;;18.20;16.33;;;13.00;99.90;;;;;;5052381;28;20505;-66
2021/09/21 04:45:14;;;;;;;18.33;17.23;;;13.00;99.90;;;;;;5052391;28;20448;-63
2021/09/21 04:47:41;;;;;;;17.70;16.90;;;13.00;99.90;;;;;;5052451;28;20451;-65
2021/09/21 04:50:08;;;;;;;18.63;17.50;;;13.00;99.90;;;;;;5052047;28;20490;-65
2021/09/21 04:52:35;;;;;;;17.60;16.67;;;13.00;99.90;;;;;;5052219;28;20440;-66
2021/09/21 04:55:02;;;;;;;20.77;19.23;;;12.90;99.90;;;;;;5052182;28;20455;-65
2021/09/21 04:57:29;;;;;;;18.30;17.50;;;12.90;99.90;;;;;;5052098;28;20495;-66
2021/09/21 04:59:56;;;;;;;19.93;18.83;;;13.00;99.90;;;;;;5051819;28;20491;-65
2021/09/21 05:02:24;;;;;;;18.90;17.90;;;12.90;99.90;;;;;;5052050;28;20957;-65
2021/09/21 05:04:50;;;;;;;19.17;18.27;;;12.90;99.90;;;;;;5051914;28;20444;-65
2021/09/21 05:07:17;;;;;;;19.10;18.23;;;12.90;99.90;;;;;;5051895;28;20440;-65
2021/09/21 05:09:44;;;;;;;18.93;18.10;;;12.90;99.90;;;;;;5051471;28;20833;-64
2021/09/21 05:12:10;;;;;;;19.90;18.90;;;12.90;99.90;;;;;;5051817;28;20459;-63
2021/09/21 05:14:37;;;;;;;19.67;18.67;;;12.90;99.90;;;;;;5051972;28;20792;-64
2021/09/21 05:17:04;;;;;;;19.30;18.40;;;12.90;99.90;;;;;;5051746;28;20481;-64
2021/09/21 05:19:32;;;;;;;18.63;17.73;;;12.90;99.90;;;;;;5051371;28;20476;-64
2021/09/21 05:21:58;;;;;;;19.23;18.13;;;12.90;99.90;;;;;;5051671;28;20451;-64
2021/09/21 05:24:25;;;;;;;19.93;18.97;;;12.90;99.90;;;;;;5051491;28;20451;-64
2021/09/21 05:26:52;;;;;;;19.30;18.40;;;12.90;99.90;;;;;;5051001;28;20918;-64
2021/09/21 05:29:19;;;;;;;19.23;18.37;;;12.90;99.90;;;;;;5051149;28;20989;-64
2021/09/21 05:31:45;;;;;;;20.07;18.93;;;12.80;99.90;;;;;;5051385;28;20471;-65
2021/09/21 05:34:12;;;;;;;19.47;18.57;;;12.90;99.90;;;;;;5051573;28;20444;-64
2021/09/21 05:36:40;;;;;;;20.80;19.30;;;12.90;99.90;;;;;;5051402;28;20480;-64
2021/09/21 05:39:07;;;;;;;20.27;19.17;;;12.90;99.90;;;;;;5051269;28;20464;-64
2021/09/21 05:41:34;;;;;;;19.33;18.23;;;12.90;99.90;;;;;;5051463;28;20452;-64
2021/09/21 05:44:00;;;;;;;18.80;17.80;;;12.80;99.90;;;;;;5051438;28;20449;-64
2021/09/21 05:46:27;;;;;;;20.03;18.93;;;12.90;99.90;;;;;;5051422;28;20447;-63
2021/09/21 05:48:59;;;;;;;19.83;18.73;;;12.80;99.90;;;;;;5050977;28;20472;-64
2021/09/21 05:51:26;;;;;;;19.00;18.00;;;12.80;99.90;;;;;;5051412;28;20884;-64
2021/09/21 05:53:54;;;;;;;19.90;19.00;;;12.70;99.90;;;;;;5051371;28;20447;-64
2021/09/21 05:56:21;;;;;;;19.57;18.33;;;12.60;99.90;;;;;;5051166;28;20553;-65
2021/09/21 05:58:48;;;;;;;20.50;19.20;;;12.60;99.90;;;;;;5050985;28;20985;-64
2021/09/21 06:01:15;;;;;;;19.77;18.60;;;12.50;99.90;;;;;;5051328;28;20444;-64
2021/09/21 06:03:42;;;;;;;20.67;19.57;;;12.50;99.90;;;;;;5051116;28;20813;-64
2021/09/21 06:06:08;;;;;;;21.03;19.93;;;12.40;99.90;;;;;;5051191;28;20447;-65
2021/09/21 06:08:35;;;;;;;22.57;20.77;;;12.50;99.90;;;;;;5050966;28;20475;-65
2021/09/21 06:11:03;;;;;;;20.27;18.97;;;12.50;99.90;;;;;;5051155;28;20456;-64
2021/09/21 06:13:30;;;;;;;20.13;18.93;;;12.60;99.90;;;;;;5051194;28;20448;-63
2021/09/21 06:15:57;;;;;;;19.40;18.00;;;12.60;99.90;;;;;;5051044;28;20463;-65
2021/09/21 06:18:23;;;;;;;18.60;17.60;;;12.60;99.90;;;;;;5050860;28;20448;-64
2021/09/21 06:20:50;;;;;;;20.00;18.90;;;12.70;99.90;;;;;;5051195;28;20456;-64
2021/09/21 06:23:18;;;;;;;20.27;19.00;;;12.80;99.90;;;;;;5051005;28;20456;-64
2021/09/21 06:25:45;;;;;;;20.50;19.20;;;12.90;99.90;;;;;;5051076;28;20943;-63
2021/09/21 06:28:13;;;;;;;19.43;18.30;;;13.00;99.90;;;;;;5050909;28;20449;-64
2021/09/21 06:30:40;;;;;;;21.03;19.70;;;13.00;99.90;;;;;;5051109;28;20448;-64
2021/09/21 06:33:07;;;;;;;19.23;18.00;;;13.10;99.90;;;;;;5050825;28;20475;-64
2021/09/21 06:35:33;;;;;;;21.13;19.53;;;13.10;99.90;;;;;;5050949;28;20448;-64
2021/09/21 06:38:00;;;;;;;18.83;17.97;;;13.20;99.90;;;;;;5053883;28;20475;-64
2021/09/21 06:40:27;;;;;;;20.37;19.00;;;13.20;99.90;;;;;;5054772;28;20464;-63
2021/09/21 06:42:53;;;;;;;18.47;17.50;;;13.30;99.90;;;;;;5054641;28;20448;-65
2021/09/21 06:45:22;;;;;;;20.53;19.30;;;13.30;99.90;;;;;;5054460;28;20448;-64
2021/09/21 06:47:48;;;;;;;18.93;18.03;;;13.30;99.90;;;;;;5054449;28;20805;-64
2021/09/21 06:50:16;;;;;;;18.37;17.37;;;13.40;99.90;;;;;;5054337;28;20468;-63
2021/09/21 06:52:43;;;;;;;19.00;17.63;;;13.50;99.90;;;;;;5054590;28;20455;-64
2021/09/21 06:55:11;;;;;;;18.97;17.87;;;13.50;99.90;;;;;;5054418;28;20447;-64
2021/09/21 06:57:38;;;;;;;19.20;17.90;;;13.50;99.90;;;;;;5054307;28;20483;-64
2021/09/21 07:00:06;;;;;;;18.77;17.60;;;13.50;99.90;;;;;;5054040;28;20471;-63
2021/09/21 07:02:34;;;;;;;19.20;18.00;;;13.50;99.90;;;;;;5054143;28;20451;-63
2021/09/21 07:05:01;;;;;;;18.03;17.23;;;13.60;99.90;;;;;;5054380;28;20452;-63
2021/09/21 07:07:28;;;;;;;19.37;18.33;;;13.70;99.90;;;;;;5054226;28;20452;-63
2021/09/21 07:09:54;;;;;;;18.97;17.93;;;13.70;99.90;;;;;;5053627;28;20487;-65
2021/09/21 07:12:21;;;;;;;19.23;18.23;;;13.80;99.90;;;;;;5054069;28;20946;-64
2021/09/21 07:14:48;;;;;;;18.60;17.40;;;13.80;99.90;;;;;;5054144;28;20825;-63
2021/09/21 07:17:14;;;;;;;17.63;16.80;;;13.90;99.90;;;;;;5053756;28;20491;-65
2021/09/21 07:19:42;;;;;;;20.40;19.20;;;13.90;99.90;;;;;;5053651;28;20475;-64
2021/09/21 07:22:09;;;;;;;19.93;18.73;;;14.00;99.90;;;;;;5053972;28;20833;-64
2021/09/21 07:24:36;;;;;;;18.73;17.83;;;14.10;99.90;;;;;;5053747;28;20452;-64
2021/09/21 07:27:02;;;;;;;18.50;17.60;;;14.10;99.90;;;;;;5053820;28;20440;-64
2021/09/21 07:29:30;;;;;;;19.73;18.63;;;14.20;99.90;;;;;;5053409;28;20472;-65
2021/09/21 07:31:56;;;;;;;18.53;17.63;;;14.30;99.90;;;;;;5053732;28;20997;-64
2021/09/21 07:34:23;;;;;;;17.63;16.73;;;14.30;99.90;;;;;;5053663;28;20451;-64
2021/09/21 07:36:52;;;;;;;18.13;17.23;;;14.40;99.90;;;;;;5053585;28;20578;-64
2021/09/21 07:39:19;;;;;;;18.10;17.10;;;14.50;99.90;;;;;;5053321;28;20504;-64
2021/09/21 07:41:46;;;;;;;20.57;19.33;;;14.60;99.90;;;;;;5053688;28;20483;-65
2021/09/21 07:44:13;;;;;;;19.40;18.27;;;14.70;99.90;;;;;;5053625;28;20440;-64
2021/09/21 07:46:40;;;;;;;18.10;17.40;;;14.80;99.90;;;;;;5053432;28;20447;-64
2021/09/21 07:49:06;;;;;;;18.10;17.20;;;14.80;99.90;;;;;;5052413;28;20957;-64
2021/09/21 07:51:33;;;;;;;18.47;17.67;;;14.90;99.90;;;;;;5053409;28;20452;-65
2021/09/21 07:54:01;;;;;;;17.70;16.80;;;15.00;99.90;;;;;;5053394;28;20816;-64
2021/09/21 07:56:28;;;;;;;17.00;16.33;;;15.10;99.90;;;;;;5053419;28;20444;-64
2021/09/21 07:58:55;;;;;;;18.27;17.07;;;15.30;99.90;;;;;;5052983;28;20546;-64
2021/09/21 08:01:22;;;;;;;18.07;17.13;;;15.40;99.90;;;;;;5053173;28;20952;-64
2021/09/21 08:03:49;;;;;;;17.40;16.40;;;15.50;99.90;;;;;;5053206;28;20448;-64
2021/09/21 08:06:15;;;;;;;17.40;16.50;;;15.50;99.80;;;;;;5053174;28;20448;-64
2021/09/21 08:08:42;;;;;;;17.60;16.70;;;15.70;99.90;;;;;;5052539;28;20464;-64
2021/09/21 08:11:11;;;;;;;17.47;16.67;;;15.70;99.10;;;;;;5052920;28;20535;-64
2021/09/21 08:13:38;;;;;;;18.20;17.03;;;15.80;97.90;;;;;;5053012;28;20884;-65
2021/09/21 08:16:05;;;;;;;16.97;16.07;;;15.90;97.90;;;;;;5052991;28;20449;-64
2021/09/21 08:18:31;;;;;;;17.80;16.90;;;16.00;96.00;;;;;;5052490;28;20872;-65
2021/09/21 08:20:58;;;;;;;17.27;16.50;;;16.10;95.20;;;;;;5052960;28;20444;-65
2021/09/21 08:23:25;;;;;;;17.60;16.87;;;16.10;95.40;;;;;;5053383;28;20453;-65
2021/09/21 08:25:52;;;;;;;17.83;17.03;;;16.30;95.40;;;;;;5052818;28;20922;-65
2021/09/21 08:28:20;;;;;;;18.00;17.20;;;16.30;95.60;;;;;;5052446;28;20437;-65
2021/09/21 08:30:46;;;;;;;18.23;17.50;;;16.40;93.70;;;;;;5052629;28;20470;-65
2021/09/21 08:33:13;;;;;;;18.00;17.13;;;16.50;91.40;;;;;;5052680;28;20448;-65
2021/09/21 08:35:40;;;;;;;18.27;17.37;;;16.60;91.60;;;;;;5052544;28;20818;-65
2021/09/21 08:38:07;;;;;;;17.87;17.07;;;16.70;89.80;;;;;;5052347;28;20491;-65
2021/09/21 08:40:33;;;;;;;17.60;16.90;;;16.80;86.90;;;;;;5052362;28;20795;-65
2021/09/21 08:43:00;;;;;;;17.40;16.67;;;16.90;87.90;;;;;;5052474;28;20817;-64
2021/09/21 08:45:29;;;;;;;17.60;16.80;;;17.10;83.60;;;;;;5052256;28;20448;-65
2021/09/21 08:47:56;;;;;;;19.17;18.17;;;17.20;80.90;;;;;;5052208;28;20515;-66
2021/09/21 08:50:25;;;;;;;17.03;16.40;;;17.30;79.50;;;;;;5052136;28;20475;-65
2021/09/21 08:52:52;;;;;;;17.40;16.60;;;17.40;81.20;;;;;;5052296;28;20451;-64
2021/09/21 08:55:19;;;;;;;17.37;16.63;;;17.60;79.30;;;;;;5052221;28;20456;-65
2021/09/21 08:57:46;;;;;;;17.30;16.70;;;17.80;77.20;;;;;;5051938;28;20523;-65
2021/09/21 09:00:21;;;;;;;17.60;16.90;;;18.00;71.70;;;;;;5051855;28;20465;-65
2021/09/21 09:02:49;;;;;;;17.70;17.07;;;18.20;70.80;;;;;;5052130;28;20448;-65
2021/09/21 09:05:16;;;;;;;18.30;17.50;;;18.20;68.50;;;;;;5052191;28;20444;-65
2021/09/21 09:07:50;;;;;;;17.50;16.90;;;18.40;68.80;;;;;;5051763;28;20451;-65
2021/09/21 09:10:18;;;;;;;18.33;17.63;;;18.50;69.90;;;;;;5051536;28;20471;-65
2021/09/21 09:12:45;;;;;;;17.83;17.20;;;18.70;67.40;;;;;;5051898;28;20452;-64
2021/09/21 09:15:14;;;;;;;18.03;17.33;;;18.60;70.70;;;;;;5051722;28;20448;-65
2021/09/21 09:17:55;;;;;;;17.50;16.90;;;18.80;67.40;;;;;;5051776;28;20487;-65
2021/09/21 09:20:34;;;;;;;18.27;17.57;;;18.90;65.40;;;;;;5051499;28;20467;-65
2021/09/21 09:23:01;;;;;;;19.43;18.63;;;19.10;63.90;;;;;;5051913;28;20467;-65
2021/09/21 09:25:28;;;;;;;17.50;16.80;;;19.20;62.40;;;;;;5051744;28;20442;-65
2021/09/21 09:27:55;;;;;;;17.60;17.00;;;19.20;58.90;;;;;;5051451;28;20444;-64
2021/09/21 09:30:24;;;;;;;17.93;17.23;;;19.30;59.50;;;;;;5051560;28;20589;-64
2021/09/21 09:32:54;;;;;;;18.23;17.37;;;19.30;59.00;;;;;;5051718;28;20820;-64
2021/09/21 09:35:26;;;;;;;17.40;16.70;;;19.40;62.30;;;;;;5051700;28;20448;-64
2021/09/21 09:37:54;;;;;;;17.90;17.10;;;19.40;60.40;;;;;;5051252;28;20480;-65
2021/09/21 09:40:21;;;;;;;18.70;17.90;;;19.60;60.60;;;;;;5051442;28;20480;-64
2021/09/21 09:42:49;;;;;;;17.93;17.13;;;19.60;58.50;;;;;;5051461;28;20444;-64
2021/09/21 09:45:26;;;;;;;17.60;17.00;;;19.40;58.60;;;;;;5051567;28;20451;-65
2021/09/21 09:47:54;;;;;;;17.57;16.97;;;19.30;59.50;;;;;;5051236;28;20448;-65
2021/09/21 09:50:26;;;;;;;17.43;16.83;;;19.40;58.20;;;;;;5051211;28;20471;-65
2021/09/21 09:53:03;;;;;;;18.33;17.63;;;19.50;58.10;;;;;;5051323;28;20447;-65
2021/09/21 09:55:30;;;;;;;18.30;17.20;;;19.70;58.30;;;;;;5051330;28;20457;-64
2021/09/21 09:57:57;;;;;;;17.80;17.10;;;19.70;57.70;;;;;;5050955;28;20694;-64
2021/09/21 10:00:24;;;;;;;17.77;17.17;;;19.70;56.00;;;;;;5051186;28;20491;-64
2021/09/21 10:02:50;;;;;;;19.77;18.97;;;19.80;58.20;;;;;;5051299;28;20534;-64
2021/09/21 10:05:19;;;;;;;20.70;19.70;;;19.90;57.70;;;;;;5051233;28;20448;-64
2021/09/21 10:07:47;;;;;;;20.30;19.50;;;20.00;56.50;;;;;;5051004;28;20436;-65
2021/09/21 10:10:14;;;;;;;20.10;19.30;;;20.00;54.80;;;;;;5050919;28;20483;-65
2021/09/21 10:12:41;;;;;;;20.10;19.27;;;20.00;56.00;;;;;;5054006;28;20452;-64
2021/09/21 10:15:10;;;;;;;20.67;19.67;;;19.90;56.90;;;;;;5055174;28;20451;-64
2021/09/21 10:17:37;;;;;;;20.10;19.10;;;20.10;56.00;;;;;;5055060;28;20483;-64
2021/09/21 10:20:05;;;;;;;18.13;17.07;;;20.70;63.90;;;;;;5054590;28;20476;-64
2021/09/21 10:22:35;;;;;;;17.20;16.60;;;21.10;59.00;;;;;;5055002;28;20444;-64
2021/09/21 10:25:05;;;;;;;17.60;16.93;;;21.40;56.70;;;;;;5055041;28;20444;-64
2021/09/21 10:27:36;;;;;;;18.63;17.83;;;21.70;59.60;;;;;;5055008;28;20443;-65
2021/09/21 10:30:06;;;;;;;19.67;18.87;;;21.60;58.50;;;;;;5054719;28;20467;-64
2021/09/21 10:32:42;;;;;;;18.53;17.83;;;21.80;57.30;;;;;;5055042;28;20447;-64
2021/09/21 10:35:11;;;;;;;16.60;15.90;;;22.20;58.70;;;;;;5054087;28;20431;-64
2021/09/21 10:37:39;;;;;;;19.17;18.37;;;22.60;55.70;;;;;;5054731;28;20260;-65
2021/09/21 10:40:08;;;;;;;19.10;18.30;;;23.10;52.50;;;;;;5054528;28;20467;-64
2021/09/21 10:42:35;;;;;;;17.00;16.40;;;23.60;49.20;;;;;;5053449;28;20510;-63
2021/09/21 10:45:05;;;;;;;19.33;18.53;;;24.00;50.50;;;;;;5054763;28;20201;-63
2021/09/21 10:47:39;;;;;;;19.70;18.90;;;24.40;52.80;;;;;;5054664;28;20447;-65
2021/09/21 10:50:12;;;;;;;21.67;20.50;;;24.20;51.60;;;;;;5054356;28;21011;-64
2021/09/21 10:52:40;;;;;;;21.90;20.90;;;24.10;54.00;;;;;;5054484;28;20459;-64
2021/09/21 10:55:09;;;;;;;21.00;20.20;;;23.70;49.00;;;;;;5054591;28;20451;-65
2021/09/21 10:57:40;;;;;;;21.60;20.60;;;23.80;52.20;;;;;;5054361;28;20451;-64
2021/09/21 11:00:10;;;;;;;22.20;21.10;;;23.80;47.80;;;;;;5053541;28;20474;-64
2021/09/21 11:02:39;;;;;;;23.40;22.13;;;24.20;48.30;;;;;;5054346;28;20448;-64
2021/09/21 11:05:08;;;;;;;23.00;21.77;;;24.10;49.10;;;;;;5054419;28;20803;-64
2021/09/21 11:07:37;;;;;;;21.90;21.10;;;23.80;47.90;;;;;;5053658;28;20456;-64
2021/09/21 11:10:07;;;;;;;20.97;19.87;;;23.70;47.50;;;;;;5053487;28;20533;-64
2021/09/21 11:12:34;;;;;;;21.30;20.40;;;24.00;47.70;;;;;;5054113;28;20484;-64
2021/09/21 11:15:08;;;;;;;22.53;21.73;;;24.40;47.20;;;;;;5054182;28;20978;-64
2021/09/21 11:17:35;;;;;;;19.63;18.90;;;25.00;45.80;;;;;;5054085;28;20452;-64
2021/09/21 11:20:04;;;;;;;20.10;19.33;;;25.30;44.70;;;;;;5053724;28;20468;-64
2021/09/21 11:22:31;;;;;;;19.90;19.10;;;25.50;44.90;;;;;;5053440;28;20821;-65
2021/09/21 11:25:03;;;;;;;20.10;19.30;;;26.00;43.80;;;;;;5053257;28;20474;-64
2021/09/21 11:27:32;;;;;;;21.33;20.37;;;26.30;41.80;;;;;;5053828;28;20456;-64
2021/09/21 11:30:05;;;;;;;20.50;19.70;;;27.00;40.90;;;;;;5053493;28;20495;-64
2021/09/21 11:32:32;;;;;;;20.60;19.70;;;28.20;40.30;;;;;;5053739;28;20452;-63
2021/09/21 11:35:00;;;;;;;21.10;20.30;;;28.60;39.00;;;;;;5053760;28;20451;-64
2021/09/21 11:37:28;;;;;;;21.47;20.67;;;29.60;38.40;;;;;;5053597;28;20686;-64
2021/09/21 11:39:55;;;;;;;21.20;20.40;;;31.40;35.80;;;;;;5052945;28;20487;-64
2021/09/21 11:42:23;;;;;;;21.23;20.33;;;31.10;33.90;;;;;;5053620;28;20475;-64
2021/09/21 11:44:57;;;;;;;20.97;20.17;;;30.40;34.00;;;;;;5053532;28;20440;-64
2021/09/21 11:47:24;;;;;;;20.57;19.70;;;31.40;35.10;;;;;;5053539;28;20454;-64
2021/09/21 11:49:54;;;;;;;20.83;20.00;;;32.20;33.00;;;;;;5053102;28;20463;-64
2021/09/21 11:52:24;;;;;;;21.47;20.57;;;32.70;31.50;;;;;;5053452;28;20514;-64
2021/09/21 11:54:51;;;;;;;20.50;19.80;;;33.30;30.80;;;;;;5053512;28;20444;-64
2021/09/21 11:57:17;;;;;;;20.10;19.30;;;34.10;29.30;;;;;;5053252;28;20471;-62
2021/09/21 11:59:44;;;;;;;20.93;20.03;;;32.80;28.70;;;;;;5052812;28;20487;-64
2021/09/21 12:02:18;;;;;;;21.63;20.73;;;32.70;30.10;;;;;;5053225;28;20451;-64
2021/09/21 12:04:45;;;;;;;20.80;20.00;;;34.10;28.70;;;;;;5053333;28;20820;-64
2021/09/21 12:07:12;;;;;;;21.73;20.90;;;33.80;29.20;;;;;;5053218;28;20443;-65
2021/09/21 12:09:40;;;;;;;20.50;19.70;;;33.40;28.70;;;;;;5052586;28;21008;-65
2021/09/21 12:12:13;;;;;;;20.60;19.80;;;32.70;29.50;;;;;;5053083;28;20443;-66
2021/09/21 12:14:42;;;;;;;21.70;20.90;;;31.70;29.70;;;;;;5053116;28;20448;-66
2021/09/21 12:17:11;;;;;;;21.63;20.63;;;31.60;29.90;;;;;;5052872;28;21014;-64
2021/09/21 12:19:43;;;;;;;20.50;19.60;;;31.80;29.80;;;;;;5052555;28;20494;-65
2021/09/21 12:22:10;;;;;;;21.57;20.67;;;30.70;29.90;;;;;;5052937;28;20480;-65
2021/09/21 12:24:37;;;;;;;21.83;20.93;;;30.90;30.10;;;;;;5052846;28;20450;-66
2021/09/21 12:27:04;;;;;;;21.53;20.73;;;31.80;30.40;;;;;;5052855;28;20443;-64
2021/09/21 12:29:33;;;;;;;21.30;20.50;;;32.30;30.30;;;;;;5052394;28;20475;-66
2021/09/21 12:32:01;;;;;;;21.70;20.80;;;31.60;29.40;;;;;;5052740;28;20467;-65
2021/09/21 12:34:36;;;;;;;22.20;21.33;;;32.00;29.30;;;;;;5052196;28;20448;-66
2021/09/21 12:37:05;;;;;;;20.63;19.93;;;32.90;29.70;;;;;;5052597;28;20454;-66
2021/09/21 12:39:33;;;;;;;21.40;20.60;;;34.60;28.10;;;;;;5052051;28;21001;-65